sensor_id;sensor_type;location;lat;lon;timestamp;P1;durP1;ratioP1;P2;durP2;ratioP2
41739;SDS011;27422;52.444;13.300;2023-04-08T00:00:00;14.68;;;7.40;;
41739;SDS011;27422;52.444;13.300;2023-04-08T00:02:26;14.27;;;6.85;;
41739;SDS011;27422;52.444;13.300;2023-04-08T00:04:51;15.02;;;8.05;;
41739;SDS011;27422;52.444;13.300;2023-04-08T00:07:17;11.60;;;6.72;;
41739;SDS011;27422;52.444;13.300;2023-04-08T00:09:42;17.42;;;7.72;;
41739;SDS011;27422;52.444;13.300;2023-04-08T00:12:08;13.45;;;6.72;;
41739;SDS011;27422;52.444;13.300;2023-04-08T00:14:33;14.35;;;7.00;;
41739;SDS011;27422;52.444;13.300;2023-04-08T00:16:59;13.25;;;6.82;;
41739;SDS011;27422;52.444;13.300;2023-04-08T00:19:24;13.82;;;6.88;;
41739;SDS011;27422;52.444;13.300;2023-04-08T00:21:50;14.05;;;6.63;;
41739;SDS011;27422;52.444;13.300;2023-04-08T00:24:15;12.70;;;6.65;;
41739;SDS011;27422;52.444;13.300;2023-04-08T00:26:41;13.82;;;7.50;;
41739;SDS011;27422;52.444;13.300;2023-04-08T00:29:06;12.43;;;6.30;;
41739;SDS011;27422;52.444;13.300;2023-04-08T00:31:32;14.10;;;7.75;;
41739;SDS011;27422;52.444;13.300;2023-04-08T00:33:57;18.20;;;8.32;;
41739;SDS011;27422;52.444;13.300;2023-04-08T00:36:22;15.60;;;7.57;;
41739;SDS011;27422;52.444;13.300;2023-04-08T00:38:48;16.23;;;7.93;;
41739;SDS011;27422;52.444;13.300;2023-04-08T00:41:13;15.38;;;8.82;;
41739;SDS011;27422;52.444;13.300;2023-04-08T00:43:38;16.65;;;8.73;;
41739;SDS011;27422;52.444;13.300;2023-04-08T00:46:04;17.45;;;8.00;;
41739;SDS011;27422;52.444;13.300;2023-04-08T00:48:29;18.55;;;9.15;;
41739;SDS011;27422;52.444;13.300;2023-04-08T00:50:56;16.85;;;8.77;;
41739;SDS011;27422;52.444;13.300;2023-04-08T00:53:22;18.58;;;9.00;;
41739;SDS011;27422;52.444;13.300;2023-04-08T00:55:47;18.55;;;9.40;;
41739;SDS011;27422;52.444;13.300;2023-04-08T00:58:12;20.83;;;9.55;;
41739;SDS011;27422;52.444;13.300;2023-04-08T01:00:39;21.08;;;10.27;;
41739;SDS011;27422;52.444;13.300;2023-04-08T01:03:16;20.17;;;10.00;;
41739;SDS011;27422;52.444;13.300;2023-04-08T01:05:48;21.95;;;10.05;;
41739;SDS011;27422;52.444;13.300;2023-04-08T01:08:17;24.50;;;10.48;;
41739;SDS011;27422;52.444;13.300;2023-04-08T01:10:43;25.27;;;10.98;;
41739;SDS011;27422;52.444;13.300;2023-04-08T01:13:13;24.95;;;10.27;;
41739;SDS011;27422;52.444;13.300;2023-04-08T01:15:42;23.00;;;11.05;;
41739;SDS011;27422;52.444;13.300;2023-04-08T01:18:09;25.40;;;11.13;;
41739;SDS011;27422;52.444;13.300;2023-04-08T01:20:36;27.58;;;10.73;;
41739;SDS011;27422;52.444;13.300;2023-04-08T01:23:06;23.48;;;11.15;;
41739;SDS011;27422;52.444;13.300;2023-04-08T01:25:52;27.27;;;10.25;;
41739;SDS011;27422;52.444;13.300;2023-04-08T01:28:18;25.63;;;10.98;;
41739;SDS011;27422;52.444;13.300;2023-04-08T01:30:44;25.67;;;11.00;;
41739;SDS011;27422;52.444;13.300;2023-04-08T01:33:11;25.60;;;10.90;;
41739;SDS011;27422;52.444;13.300;2023-04-08T01:35:38;29.13;;;12.10;;
41739;SDS011;27422;52.444;13.300;2023-04-08T01:38:04;25.30;;;12.07;;
41739;SDS011;27422;52.444;13.300;2023-04-08T01:40:31;29.15;;;12.35;;
41739;SDS011;27422;52.444;13.300;2023-04-08T01:42:58;29.37;;;11.60;;
41739;SDS011;27422;52.444;13.300;2023-04-08T01:45:24;28.73;;;12.07;;
41739;SDS011;27422;52.444;13.300;2023-04-08T01:47:50;27.10;;;11.30;;
41739;SDS011;27422;52.444;13.300;2023-04-08T01:50:16;29.63;;;11.57;;
41739;SDS011;27422;52.444;13.300;2023-04-08T01:52:43;32.83;;;13.85;;
41739;SDS011;27422;52.444;13.300;2023-04-08T01:55:09;28.80;;;11.88;;
41739;SDS011;27422;52.444;13.300;2023-04-08T01:57:36;36.85;;;13.20;;
41739;SDS011;27422;52.444;13.300;2023-04-08T02:00:05;29.48;;;13.20;;
41739;SDS011;27422;52.444;13.300;2023-04-08T02:02:32;30.85;;;12.57;;
41739;SDS011;27422;52.444;13.300;2023-04-08T02:05:00;31.27;;;12.68;;
41739;SDS011;27422;52.444;13.300;2023-04-08T02:07:25;28.63;;;12.70;;
41739;SDS011;27422;52.444;13.300;2023-04-08T02:09:51;30.85;;;12.07;;
41739;SDS011;27422;52.444;13.300;2023-04-08T02:12:16;32.67;;;13.02;;
41739;SDS011;27422;52.444;13.300;2023-04-08T02:14:42;26.48;;;12.13;;
41739;SDS011;27422;52.444;13.300;2023-04-08T02:17:08;27.75;;;12.50;;
41739;SDS011;27422;52.444;13.300;2023-04-08T02:22:08;31.63;;;11.90;;
41739;SDS011;27422;52.444;13.300;2023-04-08T02:24:36;34.80;;;12.38;;
41739;SDS011;27422;52.444;13.300;2023-04-08T02:27:03;35.25;;;13.43;;
41739;SDS011;27422;52.444;13.300;2023-04-08T02:29:30;29.52;;;13.05;;
41739;SDS011;27422;52.444;13.300;2023-04-08T02:31:56;33.03;;;13.13;;
41739;SDS011;27422;52.444;13.300;2023-04-08T02:34:23;28.77;;;12.97;;
41739;SDS011;27422;52.444;13.300;2023-04-08T02:36:49;31.15;;;12.77;;
41739;SDS011;27422;52.444;13.300;2023-04-08T02:39:15;35.25;;;13.52;;
41739;SDS011;27422;52.444;13.300;2023-04-08T02:41:41;33.47;;;12.45;;
41739;SDS011;27422;52.444;13.300;2023-04-08T02:44:06;33.78;;;13.85;;
41739;SDS011;27422;52.444;13.300;2023-04-08T02:46:32;35.75;;;13.27;;
41739;SDS011;27422;52.444;13.300;2023-04-08T02:48:57;33.83;;;13.15;;
41739;SDS011;27422;52.444;13.300;2023-04-08T02:51:22;35.10;;;12.85;;
41739;SDS011;27422;52.444;13.300;2023-04-08T02:53:48;35.35;;;12.73;;
41739;SDS011;27422;52.444;13.300;2023-04-08T02:56:13;33.63;;;13.25;;
41739;SDS011;27422;52.444;13.300;2023-04-08T02:58:39;32.83;;;12.70;;
41739;SDS011;27422;52.444;13.300;2023-04-08T03:01:04;31.15;;;12.32;;
41739;SDS011;27422;52.444;13.300;2023-04-08T03:03:29;30.55;;;12.93;;
41739;SDS011;27422;52.444;13.300;2023-04-08T03:05:55;31.40;;;12.32;;
41739;SDS011;27422;52.444;13.300;2023-04-08T03:08:21;33.10;;;12.80;;
41739;SDS011;27422;52.444;13.300;2023-04-08T03:10:47;35.83;;;13.20;;
41739;SDS011;27422;52.444;13.300;2023-04-08T03:13:13;29.30;;;13.23;;
41739;SDS011;27422;52.444;13.300;2023-04-08T03:15:39;36.25;;;12.88;;
41739;SDS011;27422;52.444;13.300;2023-04-08T03:18:04;32.72;;;12.93;;
41739;SDS011;27422;52.444;13.300;2023-04-08T03:20:30;27.65;;;11.52;;
41739;SDS011;27422;52.444;13.300;2023-04-08T03:22:55;32.13;;;12.10;;
41739;SDS011;27422;52.444;13.300;2023-04-08T03:25:20;31.88;;;12.50;;
41739;SDS011;27422;52.444;13.300;2023-04-08T03:27:46;31.52;;;13.18;;
41739;SDS011;27422;52.444;13.300;2023-04-08T03:30:11;33.63;;;11.70;;
41739;SDS011;27422;52.444;13.300;2023-04-08T03:32:37;32.33;;;12.90;;
41739;SDS011;27422;52.444;13.300;2023-04-08T03:35:02;34.95;;;13.00;;
41739;SDS011;27422;52.444;13.300;2023-04-08T03:37:28;34.13;;;13.30;;
41739;SDS011;27422;52.444;13.300;2023-04-08T03:39:54;33.97;;;13.07;;
41739;SDS011;27422;52.444;13.300;2023-04-08T03:42:20;28.77;;;12.57;;
41739;SDS011;27422;52.444;13.300;2023-04-08T03:44:45;32.80;;;13.23;;
41739;SDS011;27422;52.444;13.300;2023-04-08T03:47:10;35.40;;;13.45;;
41739;SDS011;27422;52.444;13.300;2023-04-08T03:49:36;32.28;;;12.98;;
41739;SDS011;27422;52.444;13.300;2023-04-08T03:52:01;34.55;;;13.68;;
41739;SDS011;27422;52.444;13.300;2023-04-08T03:54:26;33.95;;;13.85;;
41739;SDS011;27422;52.444;13.300;2023-04-08T03:56:52;35.20;;;13.57;;
41739;SDS011;27422;52.444;13.300;2023-04-08T03:59:17;38.38;;;14.25;;
41739;SDS011;27422;52.444;13.300;2023-04-08T04:01:43;38.55;;;14.73;;
41739;SDS011;27422;52.444;13.300;2023-04-08T04:04:08;36.00;;;14.35;;
41739;SDS011;27422;52.444;13.300;2023-04-08T04:06:33;33.83;;;13.15;;
41739;SDS011;27422;52.444;13.300;2023-04-08T04:08:59;38.42;;;13.40;;
41739;SDS011;27422;52.444;13.300;2023-04-08T04:11:24;38.42;;;14.52;;
41739;SDS011;27422;52.444;13.300;2023-04-08T04:13:50;33.03;;;13.27;;
41739;SDS011;27422;52.444;13.300;2023-04-08T04:16:15;33.22;;;13.75;;
41739;SDS011;27422;52.444;13.300;2023-04-08T04:18:41;36.95;;;14.57;;
41739;SDS011;27422;52.444;13.300;2023-04-08T04:21:06;40.88;;;14.68;;
41739;SDS011;27422;52.444;13.300;2023-04-08T04:23:32;42.10;;;15.00;;
41739;SDS011;27422;52.444;13.300;2023-04-08T04:25:58;35.58;;;13.88;;
41739;SDS011;27422;52.444;13.300;2023-04-08T04:28:23;38.63;;;14.10;;
41739;SDS011;27422;52.444;13.300;2023-04-08T04:30:48;31.20;;;13.18;;
41739;SDS011;27422;52.444;13.300;2023-04-08T04:33:14;39.88;;;14.80;;
41739;SDS011;27422;52.444;13.300;2023-04-08T04:35:39;38.92;;;14.35;;
41739;SDS011;27422;52.444;13.300;2023-04-08T04:38:05;36.15;;;14.20;;
41739;SDS011;27422;52.444;13.300;2023-04-08T04:40:37;38.30;;;14.68;;
41739;SDS011;27422;52.444;13.300;2023-04-08T04:43:03;34.35;;;12.73;;
41739;SDS011;27422;52.444;13.300;2023-04-08T04:45:28;37.50;;;14.45;;
41739;SDS011;27422;52.444;13.300;2023-04-08T04:47:54;33.53;;;13.75;;
41739;SDS011;27422;52.444;13.300;2023-04-08T04:50:19;37.20;;;14.75;;
41739;SDS011;27422;52.444;13.300;2023-04-08T04:52:45;36.60;;;16.10;;
41739;SDS011;27422;52.444;13.300;2023-04-08T04:55:11;34.20;;;14.25;;
41739;SDS011;27422;52.444;13.300;2023-04-08T04:57:36;41.30;;;15.70;;
41739;SDS011;27422;52.444;13.300;2023-04-08T05:00:01;34.65;;;14.48;;
41739;SDS011;27422;52.444;13.300;2023-04-08T05:02:27;34.10;;;14.32;;
41739;SDS011;27422;52.444;13.300;2023-04-08T05:04:53;38.70;;;14.57;;
41739;SDS011;27422;52.444;13.300;2023-04-08T05:07:19;34.10;;;15.55;;
41739;SDS011;27422;52.444;13.300;2023-04-08T05:09:45;32.92;;;14.18;;
41739;SDS011;27422;52.444;13.300;2023-04-08T05:12:11;40.60;;;15.43;;
41739;SDS011;27422;52.444;13.300;2023-04-08T05:14:36;33.05;;;14.00;;
41739;SDS011;27422;52.444;13.300;2023-04-08T05:17:02;37.63;;;14.73;;
41739;SDS011;27422;52.444;13.300;2023-04-08T05:19:27;34.80;;;14.73;;
41739;SDS011;27422;52.444;13.300;2023-04-08T05:21:52;36.33;;;15.02;;
41739;SDS011;27422;52.444;13.300;2023-04-08T05:24:18;32.85;;;14.15;;
41739;SDS011;27422;52.444;13.300;2023-04-08T05:26:43;37.53;;;14.23;;
41739;SDS011;27422;52.444;13.300;2023-04-08T05:29:08;37.75;;;14.77;;
41739;SDS011;27422;52.444;13.300;2023-04-08T05:31:34;37.40;;;14.70;;
41739;SDS011;27422;52.444;13.300;2023-04-08T05:33:59;33.90;;;14.32;;
41739;SDS011;27422;52.444;13.300;2023-04-08T05:36:25;37.63;;;14.90;;
41739;SDS011;27422;52.444;13.300;2023-04-08T05:38:51;38.53;;;14.95;;
41739;SDS011;27422;52.444;13.300;2023-04-08T05:41:16;36.15;;;14.52;;
41739;SDS011;27422;52.444;13.300;2023-04-08T05:43:42;40.15;;;15.57;;
41739;SDS011;27422;52.444;13.300;2023-04-08T05:46:07;38.67;;;15.55;;
41739;SDS011;27422;52.444;13.300;2023-04-08T05:48:34;36.22;;;14.48;;
41739;SDS011;27422;52.444;13.300;2023-04-08T05:51:00;35.47;;;15.18;;
41739;SDS011;27422;52.444;13.300;2023-04-08T05:53:25;36.50;;;13.88;;
41739;SDS011;27422;52.444;13.300;2023-04-08T05:55:51;35.50;;;14.95;;
41739;SDS011;27422;52.444;13.300;2023-04-08T05:58:16;37.17;;;14.05;;
41739;SDS011;27422;52.444;13.300;2023-04-08T06:00:41;37.90;;;14.82;;
41739;SDS011;27422;52.444;13.300;2023-04-08T06:03:07;36.65;;;13.90;;
41739;SDS011;27422;52.444;13.300;2023-04-08T06:05:32;35.22;;;14.43;;
41739;SDS011;27422;52.444;13.300;2023-04-08T06:07:58;37.17;;;14.95;;
41739;SDS011;27422;52.444;13.300;2023-04-08T06:10:23;33.80;;;14.98;;
41739;SDS011;27422;52.444;13.300;2023-04-08T06:12:48;35.63;;;14.98;;
41739;SDS011;27422;52.444;13.300;2023-04-08T06:15:14;36.63;;;14.80;;
41739;SDS011;27422;52.444;13.300;2023-04-08T06:17:40;32.45;;;14.07;;
41739;SDS011;27422;52.444;13.300;2023-04-08T06:20:06;33.70;;;14.70;;
41739;SDS011;27422;52.444;13.300;2023-04-08T06:22:33;35.60;;;14.32;;
41739;SDS011;27422;52.444;13.300;2023-04-08T06:25:00;36.38;;;15.20;;
41739;SDS011;27422;52.444;13.300;2023-04-08T06:27:25;33.03;;;14.40;;
41739;SDS011;27422;52.444;13.300;2023-04-08T06:29:51;34.03;;;15.07;;
41739;SDS011;27422;52.444;13.300;2023-04-08T06:32:17;35.72;;;15.23;;
41739;SDS011;27422;52.444;13.300;2023-04-08T06:34:46;35.20;;;14.30;;
41739;SDS011;27422;52.444;13.300;2023-04-08T06:37:11;34.55;;;14.07;;
41739;SDS011;27422;52.444;13.300;2023-04-08T06:39:37;34.30;;;14.93;;
41739;SDS011;27422;52.444;13.300;2023-04-08T06:42:02;37.88;;;15.80;;
41739;SDS011;27422;52.444;13.300;2023-04-08T06:44:28;36.83;;;15.50;;
41739;SDS011;27422;52.444;13.300;2023-04-08T06:46:53;35.67;;;15.65;;
41739;SDS011;27422;52.444;13.300;2023-04-08T06:49:18;34.33;;;13.73;;
41739;SDS011;27422;52.444;13.300;2023-04-08T06:51:44;33.90;;;14.30;;
41739;SDS011;27422;52.444;13.300;2023-04-08T06:54:09;30.92;;;13.93;;
41739;SDS011;27422;52.444;13.300;2023-04-08T06:56:35;33.78;;;15.32;;
41739;SDS011;27422;52.444;13.300;2023-04-08T06:59:01;36.83;;;14.63;;
41739;SDS011;27422;52.444;13.300;2023-04-08T07:01:27;34.00;;;13.93;;
41739;SDS011;27422;52.444;13.300;2023-04-08T07:03:53;36.30;;;15.18;;
41739;SDS011;27422;52.444;13.300;2023-04-08T07:06:18;34.90;;;15.05;;
41739;SDS011;27422;52.444;13.300;2023-04-08T07:08:43;30.13;;;13.48;;
41739;SDS011;27422;52.444;13.300;2023-04-08T07:11:09;32.05;;;13.75;;
41739;SDS011;27422;52.444;13.300;2023-04-08T07:13:35;36.17;;;14.50;;
41739;SDS011;27422;52.444;13.300;2023-04-08T07:16:00;32.88;;;13.68;;
41739;SDS011;27422;52.444;13.300;2023-04-08T07:18:26;30.83;;;14.90;;
41739;SDS011;27422;52.444;13.300;2023-04-08T07:20:51;33.85;;;14.52;;
41739;SDS011;27422;52.444;13.300;2023-04-08T07:23:18;34.22;;;14.95;;
41739;SDS011;27422;52.444;13.300;2023-04-08T07:25:44;34.03;;;14.25;;
41739;SDS011;27422;52.444;13.300;2023-04-08T07:28:10;32.28;;;14.45;;
41739;SDS011;27422;52.444;13.300;2023-04-08T07:30:35;32.00;;;15.13;;
41739;SDS011;27422;52.444;13.300;2023-04-08T07:33:00;23.20;;;10.93;;
41739;SDS011;27422;52.444;13.300;2023-04-08T07:35:26;29.38;;;12.43;;
41739;SDS011;27422;52.444;13.300;2023-04-08T07:37:53;27.93;;;12.87;;
41739;SDS011;27422;52.444;13.300;2023-04-08T07:40:19;31.42;;;13.88;;
41739;SDS011;27422;52.444;13.300;2023-04-08T07:42:44;31.98;;;14.20;;
41739;SDS011;27422;52.444;13.300;2023-04-08T07:45:10;31.98;;;14.70;;
41739;SDS011;27422;52.444;13.300;2023-04-08T07:47:35;30.17;;;14.55;;
41739;SDS011;27422;52.444;13.300;2023-04-08T07:50:01;32.25;;;14.52;;
41739;SDS011;27422;52.444;13.300;2023-04-08T07:52:29;30.95;;;13.88;;
41739;SDS011;27422;52.444;13.300;2023-04-08T07:54:54;30.27;;;14.20;;
41739;SDS011;27422;52.444;13.300;2023-04-08T07:57:20;33.17;;;14.98;;
41739;SDS011;27422;52.444;13.300;2023-04-08T07:59:45;31.17;;;14.13;;
41739;SDS011;27422;52.444;13.300;2023-04-08T08:02:11;28.95;;;13.80;;
41739;SDS011;27422;52.444;13.300;2023-04-08T08:04:36;32.67;;;14.38;;
41739;SDS011;27422;52.444;13.300;2023-04-08T08:07:01;28.20;;;12.90;;
41739;SDS011;27422;52.444;13.300;2023-04-08T08:09:27;31.35;;;13.90;;
41739;SDS011;27422;52.444;13.300;2023-04-08T08:11:52;33.10;;;14.10;;
41739;SDS011;27422;52.444;13.300;2023-04-08T08:14:18;26.25;;;13.02;;
41739;SDS011;27422;52.444;13.300;2023-04-08T08:16:43;32.95;;;13.90;;
41739;SDS011;27422;52.444;13.300;2023-04-08T08:19:08;30.15;;;14.05;;
41739;SDS011;27422;52.444;13.300;2023-04-08T08:21:37;34.42;;;14.43;;
41739;SDS011;27422;52.444;13.300;2023-04-08T08:24:03;30.27;;;13.98;;
41739;SDS011;27422;52.444;13.300;2023-04-08T08:26:28;29.75;;;12.98;;
41739;SDS011;27422;52.444;13.300;2023-04-08T08:28:54;33.35;;;14.40;;
41739;SDS011;27422;52.444;13.300;2023-04-08T08:31:19;30.50;;;14.13;;
41739;SDS011;27422;52.444;13.300;2023-04-08T08:33:45;29.10;;;13.18;;
41739;SDS011;27422;52.444;13.300;2023-04-08T08:36:11;24.58;;;12.93;;
41739;SDS011;27422;52.444;13.300;2023-04-08T08:38:37;27.60;;;13.43;;
41739;SDS011;27422;52.444;13.300;2023-04-08T08:41:03;25.90;;;12.38;;
41739;SDS011;27422;52.444;13.300;2023-04-08T08:43:28;25.85;;;12.90;;
41739;SDS011;27422;52.444;13.300;2023-04-08T08:45:57;27.88;;;13.13;;
41739;SDS011;27422;52.444;13.300;2023-04-08T08:48:23;25.80;;;12.68;;
41739;SDS011;27422;52.444;13.300;2023-04-08T08:50:48;33.25;;;16.13;;
41739;SDS011;27422;52.444;13.300;2023-04-08T08:53:14;28.90;;;13.43;;
41739;SDS011;27422;52.444;13.300;2023-04-08T08:55:40;27.25;;;12.30;;
41739;SDS011;27422;52.444;13.300;2023-04-08T08:58:05;28.95;;;13.30;;
41739;SDS011;27422;52.444;13.300;2023-04-08T09:00:35;28.55;;;13.10;;
41739;SDS011;27422;52.444;13.300;2023-04-08T09:03:14;28.73;;;13.23;;
41739;SDS011;27422;52.444;13.300;2023-04-08T09:08:22;26.58;;;12.60;;
41739;SDS011;27422;52.444;13.300;2023-04-08T09:10:55;26.55;;;12.80;;
41739;SDS011;27422;52.444;13.300;2023-04-08T09:13:35;24.33;;;12.95;;
41739;SDS011;27422;52.444;13.300;2023-04-08T09:16:02;25.83;;;12.20;;
41739;SDS011;27422;52.444;13.300;2023-04-08T09:18:29;26.20;;;12.60;;
41739;SDS011;27422;52.444;13.300;2023-04-08T09:20:54;24.27;;;12.40;;
41739;SDS011;27422;52.444;13.300;2023-04-08T09:23:20;25.65;;;12.48;;
41739;SDS011;27422;52.444;13.300;2023-04-08T09:25:45;28.35;;;13.15;;
41739;SDS011;27422;52.444;13.300;2023-04-08T09:28:20;26.92;;;12.73;;
41739;SDS011;27422;52.444;13.300;2023-04-08T09:30:45;26.02;;;12.25;;
41739;SDS011;27422;52.444;13.300;2023-04-08T09:33:11;27.85;;;13.13;;
41739;SDS011;27422;52.444;13.300;2023-04-08T09:35:36;25.90;;;12.98;;
41739;SDS011;27422;52.444;13.300;2023-04-08T09:38:02;28.15;;;13.05;;
41739;SDS011;27422;52.444;13.300;2023-04-08T09:40:27;29.75;;;12.80;;
41739;SDS011;27422;52.444;13.300;2023-04-08T09:42:53;22.58;;;11.60;;
41739;SDS011;27422;52.444;13.300;2023-04-08T09:45:20;28.02;;;13.07;;
41739;SDS011;27422;52.444;13.300;2023-04-08T09:50:23;23.25;;;11.55;;
41739;SDS011;27422;52.444;13.300;2023-04-08T09:52:52;22.45;;;12.15;;
41739;SDS011;27422;52.444;13.300;2023-04-08T09:55:24;38.70;;;19.52;;
41739;SDS011;27422;52.444;13.300;2023-04-08T09:57:54;24.60;;;13.15;;
41739;SDS011;27422;52.444;13.300;2023-04-08T10:00:25;24.25;;;12.35;;
41739;SDS011;27422;52.444;13.300;2023-04-08T10:02:55;24.98;;;12.82;;
41739;SDS011;27422;52.444;13.300;2023-04-08T10:06:00;27.42;;;11.57;;
41739;SDS011;27422;52.444;13.300;2023-04-08T10:08:26;22.60;;;12.20;;
41739;SDS011;27422;52.444;13.300;2023-04-08T10:10:51;24.02;;;12.20;;
41739;SDS011;27422;52.444;13.300;2023-04-08T10:13:18;21.27;;;11.75;;
41739;SDS011;27422;52.444;13.300;2023-04-08T10:15:43;23.50;;;11.63;;
41739;SDS011;27422;52.444;13.300;2023-04-08T10:23:04;23.23;;;11.57;;
41739;SDS011;27422;52.444;13.300;2023-04-08T10:25:31;23.60;;;11.95;;
41739;SDS011;27422;52.444;13.300;2023-04-08T10:27:57;19.93;;;9.67;;
41739;SDS011;27422;52.444;13.300;2023-04-08T10:32:52;13.43;;;7.78;;
41739;SDS011;27422;52.444;13.300;2023-04-08T10:35:29;16.42;;;8.68;;
41739;SDS011;27422;52.444;13.300;2023-04-08T10:38:01;16.15;;;9.05;;
41739;SDS011;27422;52.444;13.300;2023-04-08T10:40:27;14.85;;;8.48;;
41739;SDS011;27422;52.444;13.300;2023-04-08T10:42:53;16.77;;;8.93;;
41739;SDS011;27422;52.444;13.300;2023-04-08T10:45:20;17.65;;;9.68;;
41739;SDS011;27422;52.444;13.300;2023-04-08T10:47:46;18.02;;;10.18;;
41739;SDS011;27422;52.444;13.300;2023-04-08T10:50:12;19.70;;;10.55;;
41739;SDS011;27422;52.444;13.300;2023-04-08T10:52:48;20.08;;;10.25;;
41739;SDS011;27422;52.444;13.300;2023-04-08T10:55:14;20.38;;;10.68;;
41739;SDS011;27422;52.444;13.300;2023-04-08T10:57:43;18.95;;;9.95;;
41739;SDS011;27422;52.444;13.300;2023-04-08T11:00:09;19.88;;;10.80;;
41739;SDS011;27422;52.444;13.300;2023-04-08T11:02:41;20.38;;;10.40;;
41739;SDS011;27422;52.444;13.300;2023-04-08T11:05:08;19.33;;;9.88;;
41739;SDS011;27422;52.444;13.300;2023-04-08T11:07:38;17.77;;;9.63;;
41739;SDS011;27422;52.444;13.300;2023-04-08T11:10:05;22.25;;;10.30;;
41739;SDS011;27422;52.444;13.300;2023-04-08T11:12:31;18.40;;;9.68;;
41739;SDS011;27422;52.444;13.300;2023-04-08T11:14:58;17.48;;;9.27;;
41739;SDS011;27422;52.444;13.300;2023-04-08T11:17:23;17.23;;;8.85;;
41739;SDS011;27422;52.444;13.300;2023-04-08T11:19:48;18.20;;;9.75;;
41739;SDS011;27422;52.444;13.300;2023-04-08T11:22:14;17.55;;;9.65;;
41739;SDS011;27422;52.444;13.300;2023-04-08T11:24:40;19.02;;;10.77;;
41739;SDS011;27422;52.444;13.300;2023-04-08T11:27:06;17.77;;;9.63;;
41739;SDS011;27422;52.444;13.300;2023-04-08T11:29:31;17.80;;;9.57;;
41739;SDS011;27422;52.444;13.300;2023-04-08T11:31:57;19.73;;;9.85;;
41739;SDS011;27422;52.444;13.300;2023-04-08T11:34:23;20.52;;;10.63;;
41739;SDS011;27422;52.444;13.300;2023-04-08T11:36:52;20.38;;;10.05;;
41739;SDS011;27422;52.444;13.300;2023-04-08T11:39:17;16.73;;;9.50;;
41739;SDS011;27422;52.444;13.300;2023-04-08T11:41:47;20.73;;;9.35;;
41739;SDS011;27422;52.444;13.300;2023-04-08T11:44:12;16.48;;;9.23;;
41739;SDS011;27422;52.444;13.300;2023-04-08T11:46:38;18.05;;;9.60;;
41739;SDS011;27422;52.444;13.300;2023-04-08T11:49:05;15.98;;;8.45;;
41739;SDS011;27422;52.444;13.300;2023-04-08T11:51:32;17.77;;;8.93;;
41739;SDS011;27422;52.444;13.300;2023-04-08T11:53:59;21.38;;;10.13;;
41739;SDS011;27422;52.444;13.300;2023-04-08T11:56:26;16.60;;;9.20;;
41739;SDS011;27422;52.444;13.300;2023-04-08T11:58:52;19.35;;;10.10;;
41739;SDS011;27422;52.444;13.300;2023-04-08T12:01:18;20.10;;;10.15;;
41739;SDS011;27422;52.444;13.300;2023-04-08T12:03:54;18.35;;;9.63;;
41739;SDS011;27422;52.444;13.300;2023-04-08T12:06:21;19.25;;;9.85;;
41739;SDS011;27422;52.444;13.300;2023-04-08T12:08:47;17.40;;;9.68;;
41739;SDS011;27422;52.444;13.300;2023-04-08T12:11:13;17.80;;;9.85;;
41739;SDS011;27422;52.444;13.300;2023-04-08T12:13:39;14.93;;;8.90;;
41739;SDS011;27422;52.444;13.300;2023-04-08T12:16:05;14.35;;;8.65;;
41739;SDS011;27422;52.444;13.300;2023-04-08T12:18:31;14.50;;;8.40;;
41739;SDS011;27422;52.444;13.300;2023-04-08T12:20:56;15.15;;;8.88;;
41739;SDS011;27422;52.444;13.300;2023-04-08T12:23:22;14.15;;;8.60;;
41739;SDS011;27422;52.444;13.300;2023-04-08T12:25:47;13.20;;;7.65;;
41739;SDS011;27422;52.444;13.300;2023-04-08T12:28:13;13.18;;;7.35;;
41739;SDS011;27422;52.444;13.300;2023-04-08T12:30:38;13.98;;;8.05;;
41739;SDS011;27422;52.444;13.300;2023-04-08T12:33:03;12.02;;;6.80;;
41739;SDS011;27422;52.444;13.300;2023-04-08T12:35:29;10.27;;;6.43;;
41739;SDS011;27422;52.444;13.300;2023-04-08T12:37:55;9.38;;;5.50;;
41739;SDS011;27422;52.444;13.300;2023-04-08T12:40:20;9.90;;;6.05;;
41739;SDS011;27422;52.444;13.300;2023-04-08T12:42:46;11.48;;;6.88;;
41739;SDS011;27422;52.444;13.300;2023-04-08T12:45:12;10.23;;;5.93;;
41739;SDS011;27422;52.444;13.300;2023-04-08T12:47:38;8.88;;;5.10;;
41739;SDS011;27422;52.444;13.300;2023-04-08T12:50:03;7.93;;;5.05;;
41739;SDS011;27422;52.444;13.300;2023-04-08T12:52:29;9.75;;;5.80;;
41739;SDS011;27422;52.444;13.300;2023-04-08T12:54:54;10.05;;;5.03;;
41739;SDS011;27422;52.444;13.300;2023-04-08T12:57:20;8.57;;;5.15;;
41739;SDS011;27422;52.444;13.300;2023-04-08T12:59:45;8.65;;;5.03;;
41739;SDS011;27422;52.444;13.300;2023-04-08T13:02:11;8.73;;;5.32;;
41739;SDS011;27422;52.444;13.300;2023-04-08T13:04:36;9.82;;;5.43;;
41739;SDS011;27422;52.444;13.300;2023-04-08T13:07:02;7.57;;;4.60;;
41739;SDS011;27422;52.444;13.300;2023-04-08T13:09:28;10.38;;;5.80;;
41739;SDS011;27422;52.444;13.300;2023-04-08T13:11:54;9.63;;;5.85;;
41739;SDS011;27422;52.444;13.300;2023-04-08T13:14:20;10.55;;;6.32;;
41739;SDS011;27422;52.444;13.300;2023-04-08T13:16:45;10.68;;;6.78;;
41739;SDS011;27422;52.444;13.300;2023-04-08T13:19:11;11.55;;;6.38;;
41739;SDS011;27422;52.444;13.300;2023-04-08T13:21:37;12.20;;;6.90;;
41739;SDS011;27422;52.444;13.300;2023-04-08T13:24:02;12.52;;;6.60;;
41739;SDS011;27422;52.444;13.300;2023-04-08T13:26:28;11.25;;;6.60;;
41739;SDS011;27422;52.444;13.300;2023-04-08T13:28:53;11.57;;;6.80;;
41739;SDS011;27422;52.444;13.300;2023-04-08T13:31:19;8.18;;;5.68;;
41739;SDS011;27422;52.444;13.300;2023-04-08T13:33:45;10.25;;;5.85;;
41739;SDS011;27422;52.444;13.300;2023-04-08T13:36:30;10.30;;;5.53;;
41739;SDS011;27422;52.444;13.300;2023-04-08T13:38:56;8.88;;;5.28;;
41739;SDS011;27422;52.444;13.300;2023-04-08T13:41:21;8.63;;;4.53;;
41739;SDS011;27422;52.444;13.300;2023-04-08T13:43:47;9.00;;;5.30;;
41739;SDS011;27422;52.444;13.300;2023-04-08T13:46:12;8.55;;;4.95;;
41739;SDS011;27422;52.444;13.300;2023-04-08T13:48:38;7.38;;;4.65;;
41739;SDS011;27422;52.444;13.300;2023-04-08T13:51:04;8.23;;;5.03;;
41739;SDS011;27422;52.444;13.300;2023-04-08T13:53:29;9.40;;;5.25;;
41739;SDS011;27422;52.444;13.300;2023-04-08T13:55:54;8.35;;;5.20;;
41739;SDS011;27422;52.444;13.300;2023-04-08T13:58:22;7.95;;;4.93;;
41739;SDS011;27422;52.444;13.300;2023-04-08T14:00:48;9.25;;;5.47;;
41739;SDS011;27422;52.444;13.300;2023-04-08T14:03:15;7.97;;;4.40;;
41739;SDS011;27422;52.444;13.300;2023-04-08T14:05:40;8.20;;;5.50;;
41739;SDS011;27422;52.444;13.300;2023-04-08T14:08:06;9.38;;;5.60;;
41739;SDS011;27422;52.444;13.300;2023-04-08T14:10:31;9.20;;;5.32;;
41739;SDS011;27422;52.444;13.300;2023-04-08T14:12:56;9.25;;;5.55;;
41739;SDS011;27422;52.444;13.300;2023-04-08T14:15:22;11.18;;;6.10;;
41739;SDS011;27422;52.444;13.300;2023-04-08T14:17:47;10.85;;;6.07;;
41739;SDS011;27422;52.444;13.300;2023-04-08T14:20:13;9.93;;;6.15;;
41739;SDS011;27422;52.444;13.300;2023-04-08T14:22:43;9.57;;;5.77;;